sensor_id;sensor_type;location;lat;lon;timestamp;P1;durP1;ratioP1;P2;durP2;ratioP2
37657;SDS011;23500;53.268;8.308;2024-03-22T00:00:21;4.18;;;3.00;;
37657;SDS011;23500;53.268;8.308;2024-03-22T00:02:47;4.53;;;2.80;;
37657;SDS011;23500;53.268;8.308;2024-03-22T00:05:13;3.05;;;2.67;;
37657;SDS011;23500;53.268;8.308;2024-03-22T00:07:38;4.20;;;2.88;;
37657;SDS011;23500;53.268;8.308;2024-03-22T00:10:05;3.17;;;2.70;;
37657;SDS011;23500;53.268;8.308;2024-03-22T00:12:31;3.40;;;2.63;;
37657;SDS011;23500;53.268;8.308;2024-03-22T00:14:57;3.42;;;2.70;;
37657;SDS011;23500;53.268;8.308;2024-03-22T00:17:23;3.22;;;2.53;;
37657;SDS011;23500;53.268;8.308;2024-03-22T00:19:48;3.28;;;2.63;;
37657;SDS011;23500;53.268;8.308;2024-03-22T00:22:14;3.97;;;2.92;;
37657;SDS011;23500;53.268;8.308;2024-03-22T00:24:40;5.20;;;2.70;;
37657;SDS011;23500;53.268;8.308;2024-03-22T00:27:06;3.85;;;2.67;;
37657;SDS011;23500;53.268;8.308;2024-03-22T00:29:32;3.22;;;2.92;;
37657;SDS011;23500;53.268;8.308;2024-03-22T00:31:58;4.00;;;2.80;;
37657;SDS011;23500;53.268;8.308;2024-03-22T00:34:23;3.03;;;2.50;;
37657;SDS011;23500;53.268;8.308;2024-03-22T00:36:49;3.33;;;2.67;;
37657;SDS011;23500;53.268;8.308;2024-03-22T00:39:16;3.22;;;2.72;;
37657;SDS011;23500;53.268;8.308;2024-03-22T00:41:42;3.20;;;2.53;;
37657;SDS011;23500;53.268;8.308;2024-03-22T00:44:08;3.92;;;2.70;;
37657;SDS011;23500;53.268;8.308;2024-03-22T00:46:33;3.65;;;2.90;;
37657;SDS011;23500;53.268;8.308;2024-03-22T00:49:00;3.25;;;2.67;;
37657;SDS011;23500;53.268;8.308;2024-03-22T00:51:26;3.15;;;2.67;;
37657;SDS011;23500;53.268;8.308;2024-03-22T00:53:52;4.18;;;3.05;;
37657;SDS011;23500;53.268;8.308;2024-03-22T00:56:18;3.17;;;2.88;;
37657;SDS011;23500;53.268;8.308;2024-03-22T00:58:43;3.10;;;2.70;;
37657;SDS011;23500;53.268;8.308;2024-03-22T01:01:09;3.70;;;2.80;;
37657;SDS011;23500;53.268;8.308;2024-03-22T01:03:35;3.78;;;2.70;;
37657;SDS011;23500;53.268;8.308;2024-03-22T01:06:01;3.47;;;2.78;;
37657;SDS011;23500;53.268;8.308;2024-03-22T01:08:27;3.38;;;2.95;;
37657;SDS011;23500;53.268;8.308;2024-03-22T01:10:53;2.85;;;2.55;;
37657;SDS011;23500;53.268;8.308;2024-03-22T01:13:19;4.25;;;2.60;;
37657;SDS011;23500;53.268;8.308;2024-03-22T01:15:44;3.63;;;2.70;;
37657;SDS011;23500;53.268;8.308;2024-03-22T01:18:11;3.33;;;2.70;;
37657;SDS011;23500;53.268;8.308;2024-03-22T01:20:37;3.22;;;2.65;;
37657;SDS011;23500;53.268;8.308;2024-03-22T01:23:03;4.20;;;3.03;;
37657;SDS011;23500;53.268;8.308;2024-03-22T01:25:29;3.28;;;2.75;;
37657;SDS011;23500;53.268;8.308;2024-03-22T01:27:55;3.38;;;3.00;;
37657;SDS011;23500;53.268;8.308;2024-03-22T01:30:21;3.40;;;2.80;;
37657;SDS011;23500;53.268;8.308;2024-03-22T01:32:48;4.30;;;2.83;;
37657;SDS011;23500;53.268;8.308;2024-03-22T01:35:13;3.47;;;2.55;;
37657;SDS011;23500;53.268;8.308;2024-03-22T01:37:39;2.75;;;2.45;;
37657;SDS011;23500;53.268;8.308;2024-03-22T01:40:05;4.38;;;2.60;;
37657;SDS011;23500;53.268;8.308;2024-03-22T01:42:31;2.85;;;2.47;;
37657;SDS011;23500;53.268;8.308;2024-03-22T01:44:57;3.85;;;2.80;;
37657;SDS011;23500;53.268;8.308;2024-03-22T01:47:22;2.83;;;2.38;;
37657;SDS011;23500;53.268;8.308;2024-03-22T01:49:49;3.15;;;2.53;;
37657;SDS011;23500;53.268;8.308;2024-03-22T01:52:17;3.50;;;2.72;;
37657;SDS011;23500;53.268;8.308;2024-03-22T01:54:43;2.83;;;2.53;;
37657;SDS011;23500;53.268;8.308;2024-03-22T01:57:09;4.80;;;2.80;;
37657;SDS011;23500;53.268;8.308;2024-03-22T01:59:35;4.10;;;2.85;;
37657;SDS011;23500;53.268;8.308;2024-03-22T02:02:01;3.72;;;2.75;;
37657;SDS011;23500;53.268;8.308;2024-03-22T02:04:27;3.97;;;2.72;;
37657;SDS011;23500;53.268;8.308;2024-03-22T02:06:53;2.95;;;2.65;;
37657;SDS011;23500;53.268;8.308;2024-03-22T02:09:18;3.40;;;2.58;;
37657;SDS011;23500;53.268;8.308;2024-03-22T02:11:46;3.67;;;2.67;;
37657;SDS011;23500;53.268;8.308;2024-03-22T02:14:12;2.95;;;2.50;;
37657;SDS011;23500;53.268;8.308;2024-03-22T02:16:39;2.72;;;2.40;;
37657;SDS011;23500;53.268;8.308;2024-03-22T02:19:05;3.20;;;2.65;;
37657;SDS011;23500;53.268;8.308;2024-03-22T02:21:31;4.13;;;2.67;;
37657;SDS011;23500;53.268;8.308;2024-03-22T02:23:58;3.40;;;2.75;;
37657;SDS011;23500;53.268;8.308;2024-03-22T02:26:23;3.72;;;2.80;;
37657;SDS011;23500;53.268;8.308;2024-03-22T02:28:49;3.55;;;2.30;;
37657;SDS011;23500;53.268;8.308;2024-03-22T02:31:15;2.85;;;2.50;;
37657;SDS011;23500;53.268;8.308;2024-03-22T02:33:40;3.00;;;2.50;;
37657;SDS011;23500;53.268;8.308;2024-03-22T02:36:06;3.05;;;2.70;;
37657;SDS011;23500;53.268;8.308;2024-03-22T02:38:32;2.80;;;2.60;;
37657;SDS011;23500;53.268;8.308;2024-03-22T02:40:57;3.42;;;2.55;;
37657;SDS011;23500;53.268;8.308;2024-03-22T02:43:23;3.17;;;2.88;;
37657;SDS011;23500;53.268;8.308;2024-03-22T02:45:49;4.00;;;2.65;;
37657;SDS011;23500;53.268;8.308;2024-03-22T02:48:15;2.88;;;2.47;;
37657;SDS011;23500;53.268;8.308;2024-03-22T02:50:41;4.13;;;2.60;;
37657;SDS011;23500;53.268;8.308;2024-03-22T02:53:07;3.20;;;2.67;;
37657;SDS011;23500;53.268;8.308;2024-03-22T02:55:36;3.75;;;2.63;;
37657;SDS011;23500;53.268;8.308;2024-03-22T02:58:03;3.95;;;2.72;;
37657;SDS011;23500;53.268;8.308;2024-03-22T03:00:30;3.95;;;2.90;;
37657;SDS011;23500;53.268;8.308;2024-03-22T03:02:56;3.38;;;2.55;;
37657;SDS011;23500;53.268;8.308;2024-03-22T03:05:21;3.42;;;2.53;;
37657;SDS011;23500;53.268;8.308;2024-03-22T03:07:50;2.90;;;2.60;;
37657;SDS011;23500;53.268;8.308;2024-03-22T03:10:16;3.10;;;2.75;;
37657;SDS011;23500;53.268;8.308;2024-03-22T03:12:42;2.88;;;2.53;;
37657;SDS011;23500;53.268;8.308;2024-03-22T03:15:07;3.42;;;2.80;;
37657;SDS011;23500;53.268;8.308;2024-03-22T03:17:33;3.47;;;2.70;;
37657;SDS011;23500;53.268;8.308;2024-03-22T03:19:59;3.47;;;2.80;;
37657;SDS011;23500;53.268;8.308;2024-03-22T03:22:24;3.08;;;2.78;;
37657;SDS011;23500;53.268;8.308;2024-03-22T03:24:50;3.40;;;2.58;;
37657;SDS011;23500;53.268;8.308;2024-03-22T03:27:16;3.72;;;2.47;;
37657;SDS011;23500;53.268;8.308;2024-03-22T03:29:41;2.80;;;2.38;;
37657;SDS011;23500;53.268;8.308;2024-03-22T03:32:07;3.53;;;2.92;;
37657;SDS011;23500;53.268;8.308;2024-03-22T03:34:33;3.20;;;2.67;;
37657;SDS011;23500;53.268;8.308;2024-03-22T03:36:59;3.05;;;2.53;;
37657;SDS011;23500;53.268;8.308;2024-03-22T03:39:26;2.83;;;2.50;;
37657;SDS011;23500;53.268;8.308;2024-03-22T03:41:54;3.90;;;2.65;;
37657;SDS011;23500;53.268;8.308;2024-03-22T03:44:20;3.30;;;2.85;;
37657;SDS011;23500;53.268;8.308;2024-03-22T03:46:45;3.35;;;2.88;;
37657;SDS011;23500;53.268;8.308;2024-03-22T03:49:11;3.53;;;2.55;;
37657;SDS011;23500;53.268;8.308;2024-03-22T03:51:37;2.70;;;2.33;;
37657;SDS011;23500;53.268;8.308;2024-03-22T03:54:03;3.38;;;2.65;;
37657;SDS011;23500;53.268;8.308;2024-03-22T03:56:29;2.78;;;2.38;;
37657;SDS011;23500;53.268;8.308;2024-03-22T03:58:54;3.05;;;2.75;;
37657;SDS011;23500;53.268;8.308;2024-03-22T04:01:20;3.30;;;2.42;;
37657;SDS011;23500;53.268;8.308;2024-03-22T04:03:48;2.78;;;2.53;;
37657;SDS011;23500;53.268;8.308;2024-03-22T04:06:14;2.92;;;2.72;;
37657;SDS011;23500;53.268;8.308;2024-03-22T04:08:39;2.92;;;2.65;;
37657;SDS011;23500;53.268;8.308;2024-03-22T04:11:05;2.75;;;2.47;;
37657;SDS011;23500;53.268;8.308;2024-03-22T04:13:31;3.13;;;2.75;;
37657;SDS011;23500;53.268;8.308;2024-03-22T04:15:58;3.10;;;2.50;;
37657;SDS011;23500;53.268;8.308;2024-03-22T04:18:24;2.95;;;2.65;;
37657;SDS011;23500;53.268;8.308;2024-03-22T04:20:56;3.80;;;2.70;;
37657;SDS011;23500;53.268;8.308;2024-03-22T04:23:22;3.00;;;2.70;;
37657;SDS011;23500;53.268;8.308;2024-03-22T04:25:55;3.08;;;2.40;;
37657;SDS011;23500;53.268;8.308;2024-03-22T04:28:22;2.95;;;2.60;;
37657;SDS011;23500;53.268;8.308;2024-03-22T04:33:31;2.95;;;2.65;;
37657;SDS011;23500;53.268;8.308;2024-03-22T04:35:58;2.55;;;2.35;;
37657;SDS011;23500;53.268;8.308;2024-03-22T04:38:25;2.92;;;2.60;;
37657;SDS011;23500;53.268;8.308;2024-03-22T04:40:52;2.83;;;2.55;;
37657;SDS011;23500;53.268;8.308;2024-03-22T04:43:19;3.45;;;2.45;;
37657;SDS011;23500;53.268;8.308;2024-03-22T04:45:45;2.47;;;2.28;;
37657;SDS011;23500;53.268;8.308;2024-03-22T04:48:13;2.60;;;2.40;;
37657;SDS011;23500;53.268;8.308;2024-03-22T04:50:40;2.80;;;2.40;;
37657;SDS011;23500;53.268;8.308;2024-03-22T04:53:05;2.28;;;2.08;;
37657;SDS011;23500;53.268;8.308;2024-03-22T04:55:32;2.33;;;2.10;;
37657;SDS011;23500;53.268;8.308;2024-03-22T04:58:00;2.40;;;2.05;;
37657;SDS011;23500;53.268;8.308;2024-03-22T05:00:27;2.58;;;2.00;;
37657;SDS011;23500;53.268;8.308;2024-03-22T05:02:53;2.45;;;2.25;;
37657;SDS011;23500;53.268;8.308;2024-03-22T05:05:19;2.63;;;2.42;;
37657;SDS011;23500;53.268;8.308;2024-03-22T05:07:45;2.70;;;2.50;;
37657;SDS011;23500;53.268;8.308;2024-03-22T05:10:11;2.22;;;2.00;;
37657;SDS011;23500;53.268;8.308;2024-03-22T05:12:38;2.40;;;2.15;;
37657;SDS011;23500;53.268;8.308;2024-03-22T05:15:05;2.33;;;2.13;;
37657;SDS011;23500;53.268;8.308;2024-03-22T05:17:31;2.35;;;2.15;;
37657;SDS011;23500;53.268;8.308;2024-03-22T05:19:58;2.60;;;2.20;;
37657;SDS011;23500;53.268;8.308;2024-03-22T05:22:24;2.47;;;2.25;;
37657;SDS011;23500;53.268;8.308;2024-03-22T05:24:50;2.42;;;2.22;;
37657;SDS011;23500;53.268;8.308;2024-03-22T05:27:17;2.53;;;2.30;;
37657;SDS011;23500;53.268;8.308;2024-03-22T05:29:43;2.08;;;1.88;;
37657;SDS011;23500;53.268;8.308;2024-03-22T05:32:08;2.40;;;2.20;;
37657;SDS011;23500;53.268;8.308;2024-03-22T05:34:34;4.15;;;2.22;;
37657;SDS011;23500;53.268;8.308;2024-03-22T05:37:00;2.80;;;2.60;;
37657;SDS011;23500;53.268;8.308;2024-03-22T05:39:26;3.45;;;2.70;;
37657;SDS011;23500;53.268;8.308;2024-03-22T05:41:52;3.30;;;2.25;;
37657;SDS011;23500;53.268;8.308;2024-03-22T05:44:19;2.60;;;2.25;;
37657;SDS011;23500;53.268;8.308;2024-03-22T05:46:46;2.92;;;2.45;;
37657;SDS011;23500;53.268;8.308;2024-03-22T05:49:12;3.33;;;2.60;;
37657;SDS011;23500;53.268;8.308;2024-03-22T05:51:37;2.70;;;2.50;;
37657;SDS011;23500;53.268;8.308;2024-03-22T05:54:03;2.65;;;2.35;;
37657;SDS011;23500;53.268;8.308;2024-03-22T05:56:29;2.78;;;2.47;;
37657;SDS011;23500;53.268;8.308;2024-03-22T05:58:55;3.15;;;2.40;;
37657;SDS011;23500;53.268;8.308;2024-03-22T06:01:20;2.60;;;2.40;;
37657;SDS011;23500;53.268;8.308;2024-03-22T06:03:46;3.42;;;2.33;;
37657;SDS011;23500;53.268;8.308;2024-03-22T06:06:12;2.25;;;2.05;;
37657;SDS011;23500;53.268;8.308;2024-03-22T06:08:37;2.88;;;2.33;;
37657;SDS011;23500;53.268;8.308;2024-03-22T06:11:05;2.42;;;2.22;;
37657;SDS011;23500;53.268;8.308;2024-03-22T06:13:32;3.60;;;2.28;;
37657;SDS011;23500;53.268;8.308;2024-03-22T06:15:58;2.58;;;2.38;;
37657;SDS011;23500;53.268;8.308;2024-03-22T06:18:24;2.88;;;2.58;;
37657;SDS011;23500;53.268;8.308;2024-03-22T06:20:49;2.50;;;2.30;;
37657;SDS011;23500;53.268;8.308;2024-03-22T06:23:15;2.50;;;2.20;;
37657;SDS011;23500;53.268;8.308;2024-03-22T06:25:41;2.33;;;2.13;;
37657;SDS011;23500;53.268;8.308;2024-03-22T06:28:15;2.33;;;2.13;;
37657;SDS011;23500;53.268;8.308;2024-03-22T06:30:41;2.10;;;1.90;;
37657;SDS011;23500;53.268;8.308;2024-03-22T06:33:07;2.30;;;2.10;;
37657;SDS011;23500;53.268;8.308;2024-03-22T06:35:32;2.47;;;2.28;;
37657;SDS011;23500;53.268;8.308;2024-03-22T06:37:58;2.67;;;2.40;;
37657;SDS011;23500;53.268;8.308;2024-03-22T06:40:28;2.33;;;2.13;;
37657;SDS011;23500;53.268;8.308;2024-03-22T06:42:55;2.60;;;2.30;;
37657;SDS011;23500;53.268;8.308;2024-03-22T06:45:21;2.90;;;2.28;;
37657;SDS011;23500;53.268;8.308;2024-03-22T06:47:46;2.67;;;2.35;;
37657;SDS011;23500;53.268;8.308;2024-03-22T06:50:12;2.60;;;2.40;;
37657;SDS011;23500;53.268;8.308;2024-03-22T06:52:38;2.50;;;2.30;;
37657;SDS011;23500;53.268;8.308;2024-03-22T06:55:04;3.22;;;2.58;;
37657;SDS011;23500;53.268;8.308;2024-03-22T06:57:31;3.40;;;2.80;;
37657;SDS011;23500;53.268;8.308;2024-03-22T06:59:58;2.95;;;2.35;;
37657;SDS011;23500;53.268;8.308;2024-03-22T07:02:25;2.95;;;2.58;;
37657;SDS011;23500;53.268;8.308;2024-03-22T07:04:51;3.05;;;2.67;;
37657;SDS011;23500;53.268;8.308;2024-03-22T07:07:17;2.40;;;2.20;;
37657;SDS011;23500;53.268;8.308;2024-03-22T07:09:43;2.78;;;2.58;;
37657;SDS011;23500;53.268;8.308;2024-03-22T07:12:09;2.42;;;2.22;;
37657;SDS011;23500;53.268;8.308;2024-03-22T07:14:34;2.40;;;2.20;;
37657;SDS011;23500;53.268;8.308;2024-03-22T07:17:00;2.50;;;2.30;;
37657;SDS011;23500;53.268;8.308;2024-03-22T07:19:26;2.50;;;2.30;;
37657;SDS011;23500;53.268;8.308;2024-03-22T07:21:53;3.45;;;2.55;;
37657;SDS011;23500;53.268;8.308;2024-03-22T07:24:19;2.83;;;2.17;;
37657;SDS011;23500;53.268;8.308;2024-03-22T07:26:48;2.70;;;2.50;;
37657;SDS011;23500;53.268;8.308;2024-03-22T07:29:14;2.60;;;2.40;;
37657;SDS011;23500;53.268;8.308;2024-03-22T07:31:40;2.63;;;2.28;;
37657;SDS011;23500;53.268;8.308;2024-03-22T07:34:05;2.40;;;2.20;;
37657;SDS011;23500;53.268;8.308;2024-03-22T07:36:31;3.50;;;2.67;;
37657;SDS011;23500;53.268;8.308;2024-03-22T07:38:57;3.13;;;2.72;;
37657;SDS011;23500;53.268;8.308;2024-03-22T07:41:23;3.03;;;2.70;;
37657;SDS011;23500;53.268;8.308;2024-03-22T07:43:49;2.47;;;2.28;;
37657;SDS011;23500;53.268;8.308;2024-03-22T07:46:14;2.60;;;2.40;;
37657;SDS011;23500;53.268;8.308;2024-03-22T07:48:40;2.85;;;2.63;;
37657;SDS011;23500;53.268;8.308;2024-03-22T07:51:06;2.50;;;2.30;;
37657;SDS011;23500;53.268;8.308;2024-03-22T07:53:31;2.72;;;2.42;;
37657;SDS011;23500;53.268;8.308;2024-03-22T07:55:57;2.55;;;2.35;;
37657;SDS011;23500;53.268;8.308;2024-03-22T07:58:23;2.63;;;2.42;;
37657;SDS011;23500;53.268;8.308;2024-03-22T08:00:49;2.90;;;2.60;;
37657;SDS011;23500;53.268;8.308;2024-03-22T08:03:15;2.88;;;2.45;;
37657;SDS011;23500;53.268;8.308;2024-03-22T08:05:41;3.30;;;2.60;;
37657;SDS011;23500;53.268;8.308;2024-03-22T08:08:07;2.58;;;2.38;;
37657;SDS011;23500;53.268;8.308;2024-03-22T08:10:33;2.60;;;2.40;;
37657;SDS011;23500;53.268;8.308;2024-03-22T08:12:59;3.20;;;2.83;;
37657;SDS011;23500;53.268;8.308;2024-03-22T08:15:28;2.60;;;2.40;;
37657;SDS011;23500;53.268;8.308;2024-03-22T08:17:55;2.95;;;2.63;;
37657;SDS011;23500;53.268;8.308;2024-03-22T08:20:22;2.80;;;2.60;;
37657;SDS011;23500;53.268;8.308;2024-03-22T08:22:48;3.15;;;2.85;;
37657;SDS011;23500;53.268;8.308;2024-03-22T08:25:14;3.15;;;2.85;;
37657;SDS011;23500;53.268;8.308;2024-03-22T08:27:42;3.15;;;2.85;;
37657;SDS011;23500;53.268;8.308;2024-03-22T08:30:09;3.15;;;2.85;;
37657;SDS011;23500;53.268;8.308;2024-03-22T08:32:35;3.45;;;3.10;;
37657;SDS011;23500;53.268;8.308;2024-03-22T08:35:02;3.35;;;3.05;;
37657;SDS011;23500;53.268;8.308;2024-03-22T08:37:29;3.83;;;2.83;;
37657;SDS011;23500;53.268;8.308;2024-03-22T08:39:58;3.35;;;2.88;;
37657;SDS011;23500;53.268;8.308;2024-03-22T08:42:24;3.08;;;2.72;;
37657;SDS011;23500;53.268;8.308;2024-03-22T08:44:49;3.00;;;2.58;;
37657;SDS011;23500;53.268;8.308;2024-03-22T08:47:15;3.08;;;2.80;;
37657;SDS011;23500;53.268;8.308;2024-03-22T08:49:41;4.03;;;2.90;;
37657;SDS011;23500;53.268;8.308;2024-03-22T08:52:08;3.92;;;2.85;;
37657;SDS011;23500;53.268;8.308;2024-03-22T08:54:34;2.92;;;2.67;;
37657;SDS011;23500;53.268;8.308;2024-03-22T08:57:00;3.45;;;3.15;;
37657;SDS011;23500;53.268;8.308;2024-03-22T08:59:26;3.30;;;3.00;;
37657;SDS011;23500;53.268;8.308;2024-03-22T09:01:52;3.13;;;2.90;;
37657;SDS011;23500;53.268;8.308;2024-03-22T09:04:18;2.75;;;2.50;;
37657;SDS011;23500;53.268;8.308;2024-03-22T09:06:44;3.35;;;3.05;;
37657;SDS011;23500;53.268;8.308;2024-03-22T09:09:10;4.38;;;2.90;;
37657;SDS011;23500;53.268;8.308;2024-03-22T09:11:36;3.33;;;3.03;;
37657;SDS011;23500;53.268;8.308;2024-03-22T09:14:02;5.18;;;3.55;;
37657;SDS011;23500;53.268;8.308;2024-03-22T09:16:28;3.80;;;2.90;;
37657;SDS011;23500;53.268;8.308;2024-03-22T09:18:54;3.40;;;2.92;;
37657;SDS011;23500;53.268;8.308;2024-03-22T09:21:19;3.63;;;3.20;;
37657;SDS011;23500;53.268;8.308;2024-03-22T09:23:45;4.53;;;3.50;;
37657;SDS011;23500;53.268;8.308;2024-03-22T09:26:11;3.25;;;2.95;;
37657;SDS011;23500;53.268;8.308;2024-03-22T09:28:37;4.05;;;3.28;;
37657;SDS011;23500;53.268;8.308;2024-03-22T09:31:03;3.22;;;2.92;;
37657;SDS011;23500;53.268;8.308;2024-03-22T09:33:30;4.63;;;3.47;;
37657;SDS011;23500;53.268;8.308;2024-03-22T09:35:57;3.45;;;3.15;;
37657;SDS011;23500;53.268;8.308;2024-03-22T09:38:23;3.42;;;3.13;;
37657;SDS011;23500;53.268;8.308;2024-03-22T09:40:50;3.22;;;2.92;;
37657;SDS011;23500;53.268;8.308;2024-03-22T09:43:19;5.25;;;3.42;;
37657;SDS011;23500;53.268;8.308;2024-03-22T09:45:51;3.50;;;3.20;;
37657;SDS011;23500;53.268;8.308;2024-03-22T09:48:17;4.10;;;3.70;;
37657;SDS011;23500;53.268;8.308;2024-03-22T09:50:45;4.80;;;3.20;;
37657;SDS011;23500;53.268;8.308;2024-03-22T09:53:20;4.10;;;3.50;;
37657;SDS011;23500;53.268;8.308;2024-03-22T09:55:47;3.58;;;3.28;;
37657;SDS011;23500;53.268;8.308;2024-03-22T09:58:14;4.07;;;3.40;;
37657;SDS011;23500;53.268;8.308;2024-03-22T10:00:42;3.72;;;3.40;;
37657;SDS011;23500;53.268;8.308;2024-03-22T10:03:08;4.07;;;3.40;;
37657;SDS011;23500;53.268;8.308;2024-03-22T10:05:35;3.67;;;3.38;;
37657;SDS011;23500;53.268;8.308;2024-03-22T10:08:05;3.83;;;3.42;;
37657;SDS011;23500;53.268;8.308;2024-03-22T10:10:31;3.78;;;3.47;;
37657;SDS011;23500;53.268;8.308;2024-03-22T10:13:00;3.45;;;3.15;;
37657;SDS011;23500;53.268;8.308;2024-03-22T10:15:29;3.75;;;3.45;;
37657;SDS011;23500;53.268;8.308;2024-03-22T10:17:56;3.85;;;3.45;;
37657;SDS011;23500;53.268;8.308;2024-03-22T10:20:22;4.03;;;3.65;;
37657;SDS011;23500;53.268;8.308;2024-03-22T10:22:48;3.85;;;3.53;;
37657;SDS011;23500;53.268;8.308;2024-03-22T10:25:20;3.63;;;3.33;;
37657;SDS011;23500;53.268;8.308;2024-03-22T10:27:45;3.60;;;3.30;;
37657;SDS011;23500;53.268;8.308;2024-03-22T10:30:12;3.60;;;3.22;;
37657;SDS011;23500;53.268;8.308;2024-03-22T10:32:41;4.03;;;3.63;;
37657;SDS011;23500;53.268;8.308;2024-03-22T10:35:08;3.92;;;3.63;;
37657;SDS011;23500;53.268;8.308;2024-03-22T10:37:38;4.25;;;3.65;;
37657;SDS011;23500;53.268;8.308;2024-03-22T10:40:04;4.53;;;4.13;;
37657;SDS011;23500;53.268;8.308;2024-03-22T10:42:36;4.70;;;4.00;;
37657;SDS011;23500;53.268;8.308;2024-03-22T10:45:04;4.13;;;3.65;;
37657;SDS011;23500;53.268;8.308;2024-03-22T10:47:31;4.03;;;3.58;;
37657;SDS011;23500;53.268;8.308;2024-03-22T10:50:04;3.60;;;3.30;;
37657;SDS011;23500;53.268;8.308;2024-03-22T10:52:32;4.25;;;3.58;;
37657;SDS011;23500;53.268;8.308;2024-03-22T10:55:01;4.15;;;3.42;;
37657;SDS011;23500;53.268;8.308;2024-03-22T10:57:29;4.45;;;3.70;;
37657;SDS011;23500;53.268;8.308;2024-03-22T10:59:56;4.65;;;3.85;;
37657;SDS011;23500;53.268;8.308;2024-03-22T11:02:23;3.90;;;3.50;;
37657;SDS011;23500;53.268;8.308;2024-03-22T11:04:58;4.10;;;3.70;;
37657;SDS011;23500;53.268;8.308;2024-03-22T11:07:28;3.67;;;3.20;;
37657;SDS011;23500;53.268;8.308;2024-03-22T11:09:57;3.80;;;3.50;;
37657;SDS011;23500;53.268;8.308;2024-03-22T11:12:25;4.78;;;3.53;;
37657;SDS011;23500;53.268;8.308;2024-03-22T11:14:55;4.18;;;3.60;;
37657;SDS011;23500;53.268;8.308;2024-03-22T11:17:20;4.07;;;3.53;;
37657;SDS011;23500;53.268;8.308;2024-03-22T11:19:50;3.75;;;3.30;;
37657;SDS011;23500;53.268;8.308;2024-03-22T11:22:16;4.10;;;3.70;;
37657;SDS011;23500;53.268;8.308;2024-03-22T11:24:43;3.90;;;3.60;;
37657;SDS011;23500;53.268;8.308;2024-03-22T11:27:09;3.80;;;3.50;;
37657;SDS011;23500;53.268;8.308;2024-03-22T11:29:36;3.60;;;3.28;;
37657;SDS011;23500;53.268;8.308;2024-03-22T11:32:07;4.28;;;3.85;;
37657;SDS011;23500;53.268;8.308;2024-03-22T11:34:36;3.85;;;3.55;;
37657;SDS011;23500;53.268;8.308;2024-03-22T11:37:02;4.00;;;3.67;;
37657;SDS011;23500;53.268;8.308;2024-03-22T11:39:28;4.45;;;3.40;;
37657;SDS011;23500;53.268;8.308;2024-03-22T11:41:54;4.13;;;3.53;;
37657;SDS011;23500;53.268;8.308;2024-03-22T11:44:20;3.90;;;3.50;;
37657;SDS011;23500;53.268;8.308;2024-03-22T11:46:47;4.05;;;3.67;;
37657;SDS011;23500;53.268;8.308;2024-03-22T11:49:13;3.67;;;3.35;;
37657;SDS011;23500;53.268;8.308;2024-03-22T11:51:39;3.92;;;3.60;;
37657;SDS011;23500;53.268;8.308;2024-03-22T11:54:04;4.05;;;3.38;;
37657;SDS011;23500;53.268;8.308;2024-03-22T11:56:34;3.55;;;3.08;;
37657;SDS011;23500;53.268;8.308;2024-03-22T11:59:00;4.57;;;3.88;;
37657;SDS011;23500;53.268;8.308;2024-03-22T12:01:28;4.35;;;3.80;;
37657;SDS011;23500;53.268;8.308;2024-03-22T12:03:53;4.15;;;3.72;;
37657;SDS011;23500;53.268;8.308;2024-03-22T12:06:20;3.60;;;3.30;;
37657;SDS011;23500;53.268;8.308;2024-03-22T12:08:46;4.68;;;3.60;;
37657;SDS011;23500;53.268;8.308;2024-03-22T12:11:12;4.00;;;3.60;;
37657;SDS011;23500;53.268;8.308;2024-03-22T12:13:39;4.68;;;3.78;;
37657;SDS011;23500;53.268;8.308;2024-03-22T12:16:05;6.22;;;3.50;;
37657;SDS011;23500;53.268;8.308;2024-03-22T12:18:32;4.03;;;3.63;;
37657;SDS011;23500;53.268;8.308;2024-03-22T12:20:58;3.92;;;3.20;;
37657;SDS011;23500;53.268;8.308;2024-03-22T12:23:24;4.60;;;4.15;;
37657;SDS011;23500;53.268;8.308;2024-03-22T12:25:50;3.53;;;3.22;;
37657;SDS011;23500;53.268;8.308;2024-03-22T12:28:16;3.88;;;3.50;;
37657;SDS011;23500;53.268;8.308;2024-03-22T12:30:42;3.80;;;3.35;;
37657;SDS011;23500;53.268;8.308;2024-03-22T12:33:09;4.50;;;3.38;;
37657;SDS011;23500;53.268;8.308;2024-03-22T12:35:36;4.05;;;3.50;;
37657;SDS011;23500;53.268;8.308;2024-03-22T12:38:04;3.65;;;3.35;;
37657;SDS011;23500;53.268;8.308;2024-03-22T12:40:30;3.42;;;3.13;;
37657;SDS011;23500;53.268;8.308;2024-03-22T12:42:57;3.90;;;3.45;;
37657;SDS011;23500;53.268;8.308;2024-03-22T12:45:24;3.65;;;3.35;;
37657;SDS011;23500;53.268;8.308;2024-03-22T12:47:49;4.10;;;3.70;;
37657;SDS011;23500;53.268;8.308;2024-03-22T12:50:15;4.90;;;4.50;;
37657;SDS011;23500;53.268;8.308;2024-03-22T12:52:41;4.05;;;3.65;;
37657;SDS011;23500;53.268;8.308;2024-03-22T12:55:09;4.43;;;3.65;;
37657;SDS011;23500;53.268;8.308;2024-03-22T12:57:34;4.57;;;3.40;;
37657;SDS011;23500;53.268;8.308;2024-03-22T13:00:00;3.85;;;3.45;;
37657;SDS011;23500;53.268;8.308;2024-03-22T13:02:26;4.45;;;3.47;;
37657;SDS011;23500;53.268;8.308;2024-03-22T13:04:52;3.42;;;3.13;;
37657;SDS011;23500;53.268;8.308;2024-03-22T13:07:21;3.60;;;3.20;;
37657;SDS011;23500;53.268;8.308;2024-03-22T13:09:47;4.13;;;3.20;;
37657;SDS011;23500;53.268;8.308;2024-03-22T13:12:13;3.53;;;3.20;;
37657;SDS011;23500;53.268;8.308;2024-03-22T13:14:38;4.03;;;3.40;;
37657;SDS011;23500;53.268;8.308;2024-03-22T13:17:04;4.22;;;3.38;;
37657;SDS011;23500;53.268;8.308;2024-03-22T13:19:30;5.03;;;3.63;;
37657;SDS011;23500;53.268;8.308;2024-03-22T13:21:55;4.68;;;3.17;;
37657;SDS011;23500;53.268;8.308;2024-03-22T13:24:21;3.78;;;3.33;;
37657;SDS011;23500;53.268;8.308;2024-03-22T13:26:47;3.55;;;3.25;;
37657;SDS011;23500;53.268;8.308;2024-03-22T13:29:12;4.57;;;3.10;;
37657;SDS011;23500;53.268;8.308;2024-03-22T13:31:39;4.65;;;3.15;;
37657;SDS011;23500;53.268;8.308;2024-03-22T13:34:05;4.32;;;3.30;;
37657;SDS011;23500;53.268;8.308;2024-03-22T13:36:30;5.05;;;3.30;;
37657;SDS011;23500;53.268;8.308;2024-03-22T13:38:58;3.53;;;3.13;;
37657;SDS011;23500;53.268;8.308;2024-03-22T13:41:24;5.07;;;3.50;;
37657;SDS011;23500;53.268;8.308;2024-03-22T13:43:50;4.07;;;3.47;;
37657;SDS011;23500;53.268;8.308;2024-03-22T13:46:16;3.63;;;3.33;;
37657;SDS011;23500;53.268;8.308;2024-03-22T13:48:42;3.30;;;2.80;;
37657;SDS011;23500;53.268;8.308;2024-03-22T13:51:08;3.60;;;3.15;;
37657;SDS011;23500;53.268;8.308;2024-03-22T13:53:34;3.15;;;2.85;;
37657;SDS011;23500;53.268;8.308;2024-03-22T13:56:01;3.42;;;2.80;;
37657;SDS011;23500;53.268;8.308;2024-03-22T13:58:27;3.78;;;3.38;;
37657;SDS011;23500;53.268;8.308;2024-03-22T14:00:53;3.13;;;2.83;;
37657;SDS011;23500;53.268;8.308;2024-03-22T14:03:19;3.17;;;2.88;;
37657;SDS011;23500;53.268;8.308;2024-03-22T14:05:45;3.70;;;3.30;;
37657;SDS011;23500;53.268;8.308;2024-03-22T14:08:10;3.00;;;2.80;;
37657;SDS011;23500;53.268;8.308;2024-03-22T14:10:36;3.67;;;3.13;;
37657;SDS011;23500;53.268;8.308;2024-03-22T14:13:02;2.88;;;2.67;;
37657;SDS011;23500;53.268;8.308;2024-03-22T14:15:29;4.05;;;3.15;;
37657;SDS011;23500;53.268;8.308;2024-03-22T14:17:57;3.20;;;2.85;;
37657;SDS011;23500;53.268;8.308;2024-03-22T14:20:23;3.97;;;2.92;;
37657;SDS011;23500;53.268;8.308;2024-03-22T14:22:50;4.47;;;3.53;;
37657;SDS011;23500;53.268;8.308;2024-03-22T14:25:16;3.05;;;2.78;;
37657;SDS011;23500;53.268;8.308;2024-03-22T14:27:42;3.45;;;3.00;;
37657;SDS011;23500;53.268;8.308;2024-03-22T14:30:10;4.18;;;3.22;;
37657;SDS011;23500;53.268;8.308;2024-03-22T14:32:38;3.33;;;3.03;;
37657;SDS011;23500;53.268;8.308;2024-03-22T14:35:05;3.10;;;2.80;;
37657;SDS011;23500;53.268;8.308;2024-03-22T14:37:31;3.88;;;3.20;;
37657;SDS011;23500;53.268;8.308;2024-03-22T14:39:57;3.20;;;2.88;;
37657;SDS011;23500;53.268;8.308;2024-03-22T14:42:23;3.28;;;2.97;;
37657;SDS011;23500;53.268;8.308;2024-03-22T14:44:49;3.17;;;2.97;;